sensor_id;sensor_type;location;lat;lon;timestamp;temperature;humidity
22430;DHT22;11382;48.086;11.632;2023-05-21T00:01:48;14.50;99.90
22430;DHT22;11382;48.086;11.632;2023-05-21T00:04:16;14.50;99.90
22430;DHT22;11382;48.086;11.632;2023-05-21T00:06:44;14.30;99.90
22430;DHT22;11382;48.086;11.632;2023-05-21T00:09:12;14.20;99.90
22430;DHT22;11382;48.086;11.632;2023-05-21T00:11:39;14.20;99.90
22430;DHT22;11382;48.086;11.632;2023-05-21T00:14:08;14.20;99.90
22430;DHT22;11382;48.086;11.632;2023-05-21T00:16:37;14.20;99.90
22430;DHT22;11382;48.086;11.632;2023-05-21T00:19:05;14.20;99.90
22430;DHT22;11382;48.086;11.632;2023-05-21T00:21:33;14.10;99.90
22430;DHT22;11382;48.086;11.632;2023-05-21T00:24:01;14.10;99.90
22430;DHT22;11382;48.086;11.632;2023-05-21T00:26:29;14.20;99.90
22430;DHT22;11382;48.086;11.632;2023-05-21T00:28:58;14.20;99.90
22430;DHT22;11382;48.086;11.632;2023-05-21T00:31:26;14.20;99.90
22430;DHT22;11382;48.086;11.632;2023-05-21T00:33:56;14.10;99.90
22430;DHT22;11382;48.086;11.632;2023-05-21T00:36:24;14.00;99.90
22430;DHT22;11382;48.086;11.632;2023-05-21T00:38:52;14.00;99.90
22430;DHT22;11382;48.086;11.632;2023-05-21T00:41:20;14.00;99.90
22430;DHT22;11382;48.086;11.632;2023-05-21T00:43:51;13.90;99.90
22430;DHT22;11382;48.086;11.632;2023-05-21T00:46:20;13.90;99.90
22430;DHT22;11382;48.086;11.632;2023-05-21T00:48:49;13.80;99.90
22430;DHT22;11382;48.086;11.632;2023-05-21T00:51:19;13.90;99.90
22430;DHT22;11382;48.086;11.632;2023-05-21T00:53:49;14.00;99.90
22430;DHT22;11382;48.086;11.632;2023-05-21T00:56:18;13.80;99.90
22430;DHT22;11382;48.086;11.632;2023-05-21T00:58:47;14.00;99.90
22430;DHT22;11382;48.086;11.632;2023-05-21T01:01:17;14.00;99.90
22430;DHT22;11382;48.086;11.632;2023-05-21T01:03:46;14.10;99.90
22430;DHT22;11382;48.086;11.632;2023-05-21T01:06:14;14.10;99.90
22430;DHT22;11382;48.086;11.632;2023-05-21T01:08:44;14.10;99.90
22430;DHT22;11382;48.086;11.632;2023-05-21T01:11:12;14.00;99.90
22430;DHT22;11382;48.086;11.632;2023-05-21T01:13:41;14.00;99.90
22430;DHT22;11382;48.086;11.632;2023-05-21T01:16:10;14.00;99.90
22430;DHT22;11382;48.086;11.632;2023-05-21T01:18:39;13.90;99.90
22430;DHT22;11382;48.086;11.632;2023-05-21T01:21:11;13.90;99.90
22430;DHT22;11382;48.086;11.632;2023-05-21T01:23:44;13.90;99.90
22430;DHT22;11382;48.086;11.632;2023-05-21T01:26:12;13.80;99.90
22430;DHT22;11382;48.086;11.632;2023-05-21T01:28:41;13.80;99.90
22430;DHT22;11382;48.086;11.632;2023-05-21T01:31:18;13.80;99.90
22430;DHT22;11382;48.086;11.632;2023-05-21T01:33:50;13.80;99.90
22430;DHT22;11382;48.086;11.632;2023-05-21T01:36:22;13.80;99.90
22430;DHT22;11382;48.086;11.632;2023-05-21T01:38:56;13.70;99.90
22430;DHT22;11382;48.086;11.632;2023-05-21T01:41:28;13.70;99.90
22430;DHT22;11382;48.086;11.632;2023-05-21T01:44:01;13.70;99.90
22430;DHT22;11382;48.086;11.632;2023-05-21T01:46:32;13.70;99.90
22430;DHT22;11382;48.086;11.632;2023-05-21T01:49:02;13.60;99.90
22430;DHT22;11382;48.086;11.632;2023-05-21T01:51:31;13.50;99.90
22430;DHT22;11382;48.086;11.632;2023-05-21T01:54:01;13.40;99.90
22430;DHT22;11382;48.086;11.632;2023-05-21T01:56:29;13.30;99.90
22430;DHT22;11382;48.086;11.632;2023-05-21T01:58:59;13.20;99.90
22430;DHT22;11382;48.086;11.632;2023-05-21T02:01:27;13.30;99.90
22430;DHT22;11382;48.086;11.632;2023-05-21T02:03:56;13.10;99.90
22430;DHT22;11382;48.086;11.632;2023-05-21T02:06:24;12.90;99.90
22430;DHT22;11382;48.086;11.632;2023-05-21T02:08:52;12.90;99.90
22430;DHT22;11382;48.086;11.632;2023-05-21T02:11:22;12.70;99.90
22430;DHT22;11382;48.086;11.632;2023-05-21T02:13:50;12.60;99.90
22430;DHT22;11382;48.086;11.632;2023-05-21T02:16:20;12.70;99.90
22430;DHT22;11382;48.086;11.632;2023-05-21T02:18:48;12.70;99.90
22430;DHT22;11382;48.086;11.632;2023-05-21T02:21:19;12.70;99.90
22430;DHT22;11382;48.086;11.632;2023-05-21T02:23:47;12.50;99.90
22430;DHT22;11382;48.086;11.632;2023-05-21T02:26:15;12.50;99.90
22430;DHT22;11382;48.086;11.632;2023-05-21T02:28:45;12.40;99.90
22430;DHT22;11382;48.086;11.632;2023-05-21T02:31:13;12.30;99.90
22430;DHT22;11382;48.086;11.632;2023-05-21T02:33:41;12.10;99.90
22430;DHT22;11382;48.086;11.632;2023-05-21T02:36:09;12.20;99.90
22430;DHT22;11382;48.086;11.632;2023-05-21T02:38:39;12.30;99.90
22430;DHT22;11382;48.086;11.632;2023-05-21T02:41:09;12.30;99.90
22430;DHT22;11382;48.086;11.632;2023-05-21T02:43:38;12.20;99.90
22430;DHT22;11382;48.086;11.632;2023-05-21T02:46:07;12.40;99.90
22430;DHT22;11382;48.086;11.632;2023-05-21T02:48:35;12.40;99.90
22430;DHT22;11382;48.086;11.632;2023-05-21T02:51:04;12.40;99.90
22430;DHT22;11382;48.086;11.632;2023-05-21T02:53:32;12.40;99.90
22430;DHT22;11382;48.086;11.632;2023-05-21T02:56:01;12.20;99.90
22430;DHT22;11382;48.086;11.632;2023-05-21T02:58:29;12.10;99.90
22430;DHT22;11382;48.086;11.632;2023-05-21T03:00:57;12.00;99.90
22430;DHT22;11382;48.086;11.632;2023-05-21T03:03:28;12.00;99.90
22430;DHT22;11382;48.086;11.632;2023-05-21T03:05:56;12.00;99.90
22430;DHT22;11382;48.086;11.632;2023-05-21T03:08:24;12.00;99.90
22430;DHT22;11382;48.086;11.632;2023-05-21T03:10:52;11.90;99.90
22430;DHT22;11382;48.086;11.632;2023-05-21T03:13:20;12.00;99.90
22430;DHT22;11382;48.086;11.632;2023-05-21T03:15:48;11.90;99.90
22430;DHT22;11382;48.086;11.632;2023-05-21T03:18:16;12.00;99.90
22430;DHT22;11382;48.086;11.632;2023-05-21T03:20:46;12.00;99.90
22430;DHT22;11382;48.086;11.632;2023-05-21T03:23:14;12.00;99.90
22430;DHT22;11382;48.086;11.632;2023-05-21T03:25:43;11.90;99.90
22430;DHT22;11382;48.086;11.632;2023-05-21T03:28:12;11.80;99.90
22430;DHT22;11382;48.086;11.632;2023-05-21T03:30:46;11.70;99.90
22430;DHT22;11382;48.086;11.632;2023-05-21T03:33:35;11.60;99.90
22430;DHT22;11382;48.086;11.632;2023-05-21T03:36:21;11.50;99.90
22430;DHT22;11382;48.086;11.632;2023-05-21T03:38:49;11.50;99.90
22430;DHT22;11382;48.086;11.632;2023-05-21T03:41:17;11.50;99.90
22430;DHT22;11382;48.086;11.632;2023-05-21T03:43:50;11.40;99.90
22430;DHT22;11382;48.086;11.632;2023-05-21T03:46:21;11.30;99.90
22430;DHT22;11382;48.086;11.632;2023-05-21T03:48:54;11.40;99.90
22430;DHT22;11382;48.086;11.632;2023-05-21T03:51:26;11.50;99.90
22430;DHT22;11382;48.086;11.632;2023-05-21T03:53:56;11.40;99.90
22430;DHT22;11382;48.086;11.632;2023-05-21T03:56:25;11.40;99.90
22430;DHT22;11382;48.086;11.632;2023-05-21T03:58:53;11.40;99.90
22430;DHT22;11382;48.086;11.632;2023-05-21T04:01:21;11.60;99.90
22430;DHT22;11382;48.086;11.632;2023-05-21T04:03:51;11.70;99.90
22430;DHT22;11382;48.086;11.632;2023-05-21T04:06:22;11.70;99.90
22430;DHT22;11382;48.086;11.632;2023-05-21T04:08:51;11.80;99.90
22430;DHT22;11382;48.086;11.632;2023-05-21T04:11:19;12.00;99.90
22430;DHT22;11382;48.086;11.632;2023-05-21T04:13:49;12.10;99.90
22430;DHT22;11382;48.086;11.632;2023-05-21T04:16:17;12.30;99.90
22430;DHT22;11382;48.086;11.632;2023-05-21T04:18:46;12.40;99.90
22430;DHT22;11382;48.086;11.632;2023-05-21T04:21:15;12.40;99.90
22430;DHT22;11382;48.086;11.632;2023-05-21T04:23:43;12.50;99.90
22430;DHT22;11382;48.086;11.632;2023-05-21T04:26:22;12.70;99.90
22430;DHT22;11382;48.086;11.632;2023-05-21T04:28:51;12.90;99.90
22430;DHT22;11382;48.086;11.632;2023-05-21T04:31:20;13.00;99.90
22430;DHT22;11382;48.086;11.632;2023-05-21T04:33:48;13.10;99.90
22430;DHT22;11382;48.086;11.632;2023-05-21T04:36:17;13.20;99.90
22430;DHT22;11382;48.086;11.632;2023-05-21T04:38:45;13.30;99.90
22430;DHT22;11382;48.086;11.632;2023-05-21T04:41:14;13.40;99.90
22430;DHT22;11382;48.086;11.632;2023-05-21T04:43:46;13.60;99.90
22430;DHT22;11382;48.086;11.632;2023-05-21T04:46:15;13.80;99.90
22430;DHT22;11382;48.086;11.632;2023-05-21T04:48:42;14.00;99.90
22430;DHT22;11382;48.086;11.632;2023-05-21T04:51:11;14.10;99.90
22430;DHT22;11382;48.086;11.632;2023-05-21T04:53:40;14.20;99.90
22430;DHT22;11382;48.086;11.632;2023-05-21T04:56:08;14.50;99.90
22430;DHT22;11382;48.086;11.632;2023-05-21T04:58:36;14.60;99.90
22430;DHT22;11382;48.086;11.632;2023-05-21T05:01:07;14.80;99.90
22430;DHT22;11382;48.086;11.632;2023-05-21T05:03:35;15.00;99.90
22430;DHT22;11382;48.086;11.632;2023-05-21T05:06:04;15.00;99.90
22430;DHT22;11382;48.086;11.632;2023-05-21T05:08:33;15.10;99.90
22430;DHT22;11382;48.086;11.632;2023-05-21T05:11:03;15.20;99.90
22430;DHT22;11382;48.086;11.632;2023-05-21T05:13:31;15.40;99.90
22430;DHT22;11382;48.086;11.632;2023-05-21T05:16:00;15.80;99.90
22430;DHT22;11382;48.086;11.632;2023-05-21T05:18:29;16.20;99.90
22430;DHT22;11382;48.086;11.632;2023-05-21T05:20:57;16.60;99.90
22430;DHT22;11382;48.086;11.632;2023-05-21T05:23:25;16.70;99.90
22430;DHT22;11382;48.086;11.632;2023-05-21T05:25:53;17.10;99.90
22430;DHT22;11382;48.086;11.632;2023-05-21T05:28:21;17.30;99.90
22430;DHT22;11382;48.086;11.632;2023-05-21T05:30:49;17.50;99.90
22430;DHT22;11382;48.086;11.632;2023-05-21T05:33:22;17.50;99.90
22430;DHT22;11382;48.086;11.632;2023-05-21T05:35:52;17.70;99.90
22430;DHT22;11382;48.086;11.632;2023-05-21T05:38:20;18.00;99.90
22430;DHT22;11382;48.086;11.632;2023-05-21T05:40:48;18.10;99.90
22430;DHT22;11382;48.086;11.632;2023-05-21T05:43:16;18.40;99.90
22430;DHT22;11382;48.086;11.632;2023-05-21T05:45:44;18.60;99.90
22430;DHT22;11382;48.086;11.632;2023-05-21T05:48:14;19.30;99.90
22430;DHT22;11382;48.086;11.632;2023-05-21T05:50:44;19.10;99.90
22430;DHT22;11382;48.086;11.632;2023-05-21T05:53:14;19.50;99.90
22430;DHT22;11382;48.086;11.632;2023-05-21T05:55:42;20.00;99.90
22430;DHT22;11382;48.086;11.632;2023-05-21T05:58:10;19.90;99.90
22430;DHT22;11382;48.086;11.632;2023-05-21T06:00:53;20.50;99.90
22430;DHT22;11382;48.086;11.632;2023-05-21T06:03:23;21.20;99.90
22430;DHT22;11382;48.086;11.632;2023-05-21T06:05:52;21.00;99.90
22430;DHT22;11382;48.086;11.632;2023-05-21T06:08:22;21.00;99.90
22430;DHT22;11382;48.086;11.632;2023-05-21T06:10:51;21.50;99.90
22430;DHT22;11382;48.086;11.632;2023-05-21T06:13:19;21.80;99.90
22430;DHT22;11382;48.086;11.632;2023-05-21T06:15:47;22.30;99.90
22430;DHT22;11382;48.086;11.632;2023-05-21T06:18:15;22.30;99.90
22430;DHT22;11382;48.086;11.632;2023-05-21T06:20:43;22.80;98.70
22430;DHT22;11382;48.086;11.632;2023-05-21T06:23:12;23.60;98.50
22430;DHT22;11382;48.086;11.632;2023-05-21T06:25:43;24.60;97.90
22430;DHT22;11382;48.086;11.632;2023-05-21T06:28:11;24.80;94.90
22430;DHT22;11382;48.086;11.632;2023-05-21T06:30:39;24.70;92.80
22430;DHT22;11382;48.086;11.632;2023-05-21T06:33:07;25.10;91.80
22430;DHT22;11382;48.086;11.632;2023-05-21T06:35:36;25.30;91.20
22430;DHT22;11382;48.086;11.632;2023-05-21T06:38:07;25.00;90.30
22430;DHT22;11382;48.086;11.632;2023-05-21T06:40:35;26.10;87.40
22430;DHT22;11382;48.086;11.632;2023-05-21T06:43:04;25.50;83.90
22430;DHT22;11382;48.086;11.632;2023-05-21T06:45:35;25.00;87.30
22430;DHT22;11382;48.086;11.632;2023-05-21T06:48:25;25.50;86.20
22430;DHT22;11382;48.086;11.632;2023-05-21T06:50:53;25.90;85.10
22430;DHT22;11382;48.086;11.632;2023-05-21T06:53:21;26.60;82.60
22430;DHT22;11382;48.086;11.632;2023-05-21T06:55:49;26.40;83.70
22430;DHT22;11382;48.086;11.632;2023-05-21T06:58:27;25.10;82.50
22430;DHT22;11382;48.086;11.632;2023-05-21T07:00:57;24.70;84.70
22430;DHT22;11382;48.086;11.632;2023-05-21T07:03:26;24.60;86.90
22430;DHT22;11382;48.086;11.632;2023-05-21T07:05:54;24.30;86.50
22430;DHT22;11382;48.086;11.632;2023-05-21T07:08:22;24.00;85.00
22430;DHT22;11382;48.086;11.632;2023-05-21T07:10:51;24.20;86.40
22430;DHT22;11382;48.086;11.632;2023-05-21T07:13:20;23.50;87.00
22430;DHT22;11382;48.086;11.632;2023-05-21T07:15:49;23.80;86.70
22430;DHT22;11382;48.086;11.632;2023-05-21T07:18:17;24.10;87.70
22430;DHT22;11382;48.086;11.632;2023-05-21T07:20:45;24.60;86.60
22430;DHT22;11382;48.086;11.632;2023-05-21T07:23:15;25.00;84.90
22430;DHT22;11382;48.086;11.632;2023-05-21T07:25:44;24.70;83.80
22430;DHT22;11382;48.086;11.632;2023-05-21T07:28:13;24.30;84.30
22430;DHT22;11382;48.086;11.632;2023-05-21T07:30:42;24.80;85.30
22430;DHT22;11382;48.086;11.632;2023-05-21T07:33:14;25.10;83.90
22430;DHT22;11382;48.086;11.632;2023-05-21T07:35:43;25.40;83.30
22430;DHT22;11382;48.086;11.632;2023-05-21T07:38:11;24.90;82.10
22430;DHT22;11382;48.086;11.632;2023-05-21T07:40:39;24.30;84.90
22430;DHT22;11382;48.086;11.632;2023-05-21T07:43:07;24.60;86.20
22430;DHT22;11382;48.086;11.632;2023-05-21T07:45:37;24.90;84.50
22430;DHT22;11382;48.086;11.632;2023-05-21T07:48:05;24.80;83.30
22430;DHT22;11382;48.086;11.632;2023-05-21T07:50:39;24.50;84.90
22430;DHT22;11382;48.086;11.632;2023-05-21T07:53:07;25.00;83.90
22430;DHT22;11382;48.086;11.632;2023-05-21T07:55:36;25.40;84.00
22430;DHT22;11382;48.086;11.632;2023-05-21T07:58:04;24.70;84.80
22430;DHT22;11382;48.086;11.632;2023-05-21T08:00:41;24.60;84.70
22430;DHT22;11382;48.086;11.632;2023-05-21T08:03:12;24.40;84.80
22430;DHT22;11382;48.086;11.632;2023-05-21T08:05:43;24.90;84.50
22430;DHT22;11382;48.086;11.632;2023-05-21T08:08:16;24.90;83.90
22430;DHT22;11382;48.086;11.632;2023-05-21T08:10:45;24.80;83.80
22430;DHT22;11382;48.086;11.632;2023-05-21T08:13:15;25.10;85.90
22430;DHT22;11382;48.086;11.632;2023-05-21T08:15:45;25.10;85.10
22430;DHT22;11382;48.086;11.632;2023-05-21T08:18:16;25.30;84.00
22430;DHT22;11382;48.086;11.632;2023-05-21T08:20:48;25.40;84.30
22430;DHT22;11382;48.086;11.632;2023-05-21T08:23:19;25.20;87.30
22430;DHT22;11382;48.086;11.632;2023-05-21T08:25:53;25.10;85.40
22430;DHT22;11382;48.086;11.632;2023-05-21T08:28:21;25.50;86.20
22430;DHT22;11382;48.086;11.632;2023-05-21T08:30:51;25.50;85.90
22430;DHT22;11382;48.086;11.632;2023-05-21T08:33:20;26.10;84.90
22430;DHT22;11382;48.086;11.632;2023-05-21T08:35:50;26.60;84.80
22430;DHT22;11382;48.086;11.632;2023-05-21T08:38:25;27.10;83.90
22430;DHT22;11382;48.086;11.632;2023-05-21T08:41:07;26.50;83.90
22430;DHT22;11382;48.086;11.632;2023-05-21T08:43:37;26.60;84.50
22430;DHT22;11382;48.086;11.632;2023-05-21T08:46:06;26.40;84.50
22430;DHT22;11382;48.086;11.632;2023-05-21T08:48:37;26.10;85.50
22430;DHT22;11382;48.086;11.632;2023-05-21T08:51:07;26.20;84.60
22430;DHT22;11382;48.086;11.632;2023-05-21T08:53:42;26.00;85.10
22430;DHT22;11382;48.086;11.632;2023-05-21T08:56:15;26.10;86.50
22430;DHT22;11382;48.086;11.632;2023-05-21T08:58:56;26.60;85.50
22430;DHT22;11382;48.086;11.632;2023-05-21T09:01:27;26.80;85.30
22430;DHT22;11382;48.086;11.632;2023-05-21T09:04:05;26.60;83.90
22430;DHT22;11382;48.086;11.632;2023-05-21T09:06:51;26.90;83.30
22430;DHT22;11382;48.086;11.632;2023-05-21T09:09:44;27.70;85.20
22430;DHT22;11382;48.086;11.632;2023-05-21T09:12:14;28.00;83.10
22430;DHT22;11382;48.086;11.632;2023-05-21T09:14:42;28.60;81.00
22430;DHT22;11382;48.086;11.632;2023-05-21T09:17:16;27.80;80.50
22430;DHT22;11382;48.086;11.632;2023-05-21T09:20:07;28.50;80.70
22430;DHT22;11382;48.086;11.632;2023-05-21T12:07:52;29.50;49.00
22430;DHT22;11382;48.086;11.632;2023-05-21T12:10:21;28.70;53.00
22430;DHT22;11382;48.086;11.632;2023-05-21T12:12:50;28.90;52.10
22430;DHT22;11382;48.086;11.632;2023-05-21T12:15:23;29.00;51.50
22430;DHT22;11382;48.086;11.632;2023-05-21T12:17:53;29.00;51.30
22430;DHT22;11382;48.086;11.632;2023-05-21T12:20:22;28.60;54.20
22430;DHT22;11382;48.086;11.632;2023-05-21T12:22:51;28.50;52.90
22430;DHT22;11382;48.086;11.632;2023-05-21T12:25:20;28.70;51.90
22430;DHT22;11382;48.086;11.632;2023-05-21T12:27:48;28.60;50.20
22430;DHT22;11382;48.086;11.632;2023-05-21T12:30:18;28.60;50.70
22430;DHT22;11382;48.086;11.632;2023-05-21T12:32:47;28.70;52.60
22430;DHT22;11382;48.086;11.632;2023-05-21T12:35:21;28.60;51.00
22430;DHT22;11382;48.086;11.632;2023-05-21T12:37:51;28.10;51.20
22430;DHT22;11382;48.086;11.632;2023-05-21T12:40:33;28.50;54.00
22430;DHT22;11382;48.086;11.632;2023-05-21T12:43:03;28.10;54.00
22430;DHT22;11382;48.086;11.632;2023-05-21T12:45:31;28.30;51.10
22430;DHT22;11382;48.086;11.632;2023-05-21T12:48:00;28.50;52.80
22430;DHT22;11382;48.086;11.632;2023-05-21T12:50:28;28.90;53.00
22430;DHT22;11382;48.086;11.632;2023-05-21T12:52:58;29.30;50.30
22430;DHT22;11382;48.086;11.632;2023-05-21T12:55:26;29.50;52.10
22430;DHT22;11382;48.086;11.632;2023-05-21T12:58:03;28.70;53.10
22430;DHT22;11382;48.086;11.632;2023-05-21T13:00:35;28.60;52.40
22430;DHT22;11382;48.086;11.632;2023-05-21T13:03:04;28.80;50.80
22430;DHT22;11382;48.086;11.632;2023-05-21T13:05:33;28.40;50.00
22430;DHT22;11382;48.086;11.632;2023-05-21T13:08:03;28.10;49.70
22430;DHT22;11382;48.086;11.632;2023-05-21T13:10:31;28.30;51.00
22430;DHT22;11382;48.086;11.632;2023-05-21T13:12:59;28.60;51.70
22430;DHT22;11382;48.086;11.632;2023-05-21T13:15:27;28.60;50.10
22430;DHT22;11382;48.086;11.632;2023-05-21T13:17:56;28.30;50.00
22430;DHT22;11382;48.086;11.632;2023-05-21T13:20:27;28.60;52.60
22430;DHT22;11382;48.086;11.632;2023-05-21T13:22:55;28.50;51.30
22430;DHT22;11382;48.086;11.632;2023-05-21T13:25:25;28.40;51.50
22430;DHT22;11382;48.086;11.632;2023-05-21T13:28:01;28.20;51.00
22430;DHT22;11382;48.086;11.632;2023-05-21T13:30:30;28.30;53.60
22430;DHT22;11382;48.086;11.632;2023-05-21T13:32:58;28.50;50.70
22430;DHT22;11382;48.086;11.632;2023-05-21T13:35:27;28.90;50.30
22430;DHT22;11382;48.086;11.632;2023-05-21T13:37:58;28.60;53.10
22430;DHT22;11382;48.086;11.632;2023-05-21T13:40:27;28.70;52.70
22430;DHT22;11382;48.086;11.632;2023-05-21T13:42:55;28.20;50.50
22430;DHT22;11382;48.086;11.632;2023-05-21T13:45:24;27.90;51.60
22430;DHT22;11382;48.086;11.632;2023-05-21T13:47:55;27.70;55.80
22430;DHT22;11382;48.086;11.632;2023-05-21T13:50:24;27.50;54.10
22430;DHT22;11382;48.086;11.632;2023-05-21T13:52:52;27.10;52.80
22430;DHT22;11382;48.086;11.632;2023-05-21T13:55:20;27.10;53.70
22430;DHT22;11382;48.086;11.632;2023-05-21T13:57:49;27.00;53.30
22430;DHT22;11382;48.086;11.632;2023-05-21T14:00:18;27.10;55.00
22430;DHT22;11382;48.086;11.632;2023-05-21T14:02:46;27.10;54.40
22430;DHT22;11382;48.086;11.632;2023-05-21T14:05:14;26.90;55.30
22430;DHT22;11382;48.086;11.632;2023-05-21T14:07:42;26.80;55.40
22430;DHT22;11382;48.086;11.632;2023-05-21T14:10:13;26.50;55.80
22430;DHT22;11382;48.086;11.632;2023-05-21T14:12:41;26.50;57.00
22430;DHT22;11382;48.086;11.632;2023-05-21T14:15:13;26.40;57.10
22430;DHT22;11382;48.086;11.632;2023-05-21T14:17:41;26.10;57.00
22430;DHT22;11382;48.086;11.632;2023-05-21T14:20:10;26.10;58.40
22430;DHT22;11382;48.086;11.632;2023-05-21T14:22:38;26.00;58.00
22430;DHT22;11382;48.086;11.632;2023-05-21T14:25:07;26.10;57.40
22430;DHT22;11382;48.086;11.632;2023-05-21T14:27:35;26.40;58.80
22430;DHT22;11382;48.086;11.632;2023-05-21T14:30:05;26.50;56.50
22430;DHT22;11382;48.086;11.632;2023-05-21T14:32:34;26.80;57.30
22430;DHT22;11382;48.086;11.632;2023-05-21T14:35:03;26.80;55.60
22430;DHT22;11382;48.086;11.632;2023-05-21T14:37:32;26.90;54.20
22430;DHT22;11382;48.086;11.632;2023-05-21T14:40:00;26.90;55.10
22430;DHT22;11382;48.086;11.632;2023-05-21T14:42:29;26.60;55.60
22430;DHT22;11382;48.086;11.632;2023-05-21T14:44:57;26.90;57.70
22430;DHT22;11382;48.086;11.632;2023-05-21T14:47:45;26.80;57.10
22430;DHT22;11382;48.086;11.632;2023-05-21T14:50:15;26.90;57.30
22430;DHT22;11382;48.086;11.632;2023-05-21T14:52:44;26.80;56.20
22430;DHT22;11382;48.086;11.632;2023-05-21T14:55:12;26.80;55.80
22430;DHT22;11382;48.086;11.632;2023-05-21T14:57:42;26.60;56.00
22430;DHT22;11382;48.086;11.632;2023-05-21T15:00:11;26.40;55.70
22430;DHT22;11382;48.086;11.632;2023-05-21T15:02:39;26.60;57.60
22430;DHT22;11382;48.086;11.632;2023-05-21T15:05:10;26.80;55.30
22430;DHT22;11382;48.086;11.632;2023-05-21T15:07:38;26.60;57.60
22430;DHT22;11382;48.086;11.632;2023-05-21T15:10:09;26.30;55.80
22430;DHT22;11382;48.086;11.632;2023-05-21T15:12:38;26.20;55.50
22430;DHT22;11382;48.086;11.632;2023-05-21T15:15:07;26.00;57.90
22430;DHT22;11382;48.086;11.632;2023-05-21T15:17:35;26.20;56.80
22430;DHT22;11382;48.086;11.632;2023-05-21T15:20:04;26.20;58.50
22430;DHT22;11382;48.086;11.632;2023-05-21T15:22:34;26.50;58.60
22430;DHT22;11382;48.086;11.632;2023-05-21T15:25:03;26.50;57.70
22430;DHT22;11382;48.086;11.632;2023-05-21T15:27:32;26.50;57.80
22430;DHT22;11382;48.086;11.632;2023-05-21T15:30:02;26.30;56.40
22430;DHT22;11382;48.086;11.632;2023-05-21T15:32:31;26.20;57.60
22430;DHT22;11382;48.086;11.632;2023-05-21T15:34:59;26.20;56.90
22430;DHT22;11382;48.086;11.632;2023-05-21T15:37:27;26.00;55.50
22430;DHT22;11382;48.086;11.632;2023-05-21T15:39:59;25.90;56.40
22430;DHT22;11382;48.086;11.632;2023-05-21T15:42:27;25.90;57.30
22430;DHT22;11382;48.086;11.632;2023-05-21T15:44:57;25.80;57.90
22430;DHT22;11382;48.086;11.632;2023-05-21T15:47:25;25.80;57.10
22430;DHT22;11382;48.086;11.632;2023-05-21T15:49:53;25.90;56.60
22430;DHT22;11382;48.086;11.632;2023-05-21T15:52:22;25.80;56.10
22430;DHT22;11382;48.086;11.632;2023-05-21T15:54:51;25.60;56.70
22430;DHT22;11382;48.086;11.632;2023-05-21T15:57:20;25.70;56.30
22430;DHT22;11382;48.086;11.632;2023-05-21T15:59:50;25.60;55.80
22430;DHT22;11382;48.086;11.632;2023-05-21T16:02:19;25.70;56.60
22430;DHT22;11382;48.086;11.632;2023-05-21T16:04:47;25.70;55.70
22430;DHT22;11382;48.086;11.632;2023-05-21T16:07:18;25.70;56.20
22430;DHT22;11382;48.086;11.632;2023-05-21T16:09:46;25.70;56.10
22430;DHT22;11382;48.086;11.632;2023-05-21T16:12:14;25.70;56.50
22430;DHT22;11382;48.086;11.632;2023-05-21T16:14:45;25.80;56.60
22430;DHT22;11382;48.086;11.632;2023-05-21T16:17:15;25.80;56.60
22430;DHT22;11382;48.086;11.632;2023-05-21T16:19:43;25.80;58.30
22430;DHT22;11382;48.086;11.632;2023-05-21T16:22:11;25.80;56.90
22430;DHT22;11382;48.086;11.632;2023-05-21T16:24:39;25.80;56.50
22430;DHT22;11382;48.086;11.632;2023-05-21T16:27:07;25.70;56.60
22430;DHT22;11382;48.086;11.632;2023-05-21T16:29:35;25.60;56.30
22430;DHT22;11382;48.086;11.632;2023-05-21T16:32:08;25.50;57.50
22430;DHT22;11382;48.086;11.632;2023-05-21T16:34:36;25.40;57.00
22430;DHT22;11382;48.086;11.632;2023-05-21T16:37:04;25.40;56.90
22430;DHT22;11382;48.086;11.632;2023-05-21T16:39:34;25.40;57.00
22430;DHT22;11382;48.086;11.632;2023-05-21T16:42:02;25.20;56.60
22430;DHT22;11382;48.086;11.632;2023-05-21T16:44:30;25.40;57.50
22430;DHT22;11382;48.086;11.632;2023-05-21T16:46:58;25.30;58.50
22430;DHT22;11382;48.086;11.632;2023-05-21T16:49:28;25.20;58.70
22430;DHT22;11382;48.086;11.632;2023-05-21T16:51:56;25.10;58.40
22430;DHT22;11382;48.086;11.632;2023-05-21T16:54:25;25.00;59.30
22430;DHT22;11382;48.086;11.632;2023-05-21T16:56:54;24.90;59.30
22430;DHT22;11382;48.086;11.632;2023-05-21T16:59:22;24.90;60.10
22430;DHT22;11382;48.086;11.632;2023-05-21T17:01:50;24.80;59.60
22430;DHT22;11382;48.086;11.632;2023-05-21T17:04:19;24.80;59.60
22430;DHT22;11382;48.086;11.632;2023-05-21T17:06:48;24.70;59.70
22430;DHT22;11382;48.086;11.632;2023-05-21T17:09:16;24.80;59.90
22430;DHT22;11382;48.086;11.632;2023-05-21T17:11:44;24.80;60.30
22430;DHT22;11382;48.086;11.632;2023-05-21T17:14:12;24.80;61.00
22430;DHT22;11382;48.086;11.632;2023-05-21T17:16:58;24.80;60.70
22430;DHT22;11382;48.086;11.632;2023-05-21T17:19:26;24.70;61.20
22430;DHT22;11382;48.086;11.632;2023-05-21T17:21:56;24.70;60.50
22430;DHT22;11382;48.086;11.632;2023-05-21T17:24:24;24.60;60.60
22430;DHT22;11382;48.086;11.632;2023-05-21T17:26:52;24.60;61.60
22430;DHT22;11382;48.086;11.632;2023-05-21T17:29:20;24.50;60.40
22430;DHT22;11382;48.086;11.632;2023-05-21T17:31:48;24.40;61.60
22430;DHT22;11382;48.086;11.632;2023-05-21T17:34:17;24.30;61.10
22430;DHT22;11382;48.086;11.632;2023-05-21T17:36:44;24.30;61.00
22430;DHT22;11382;48.086;11.632;2023-05-21T17:39:14;24.10;61.90
22430;DHT22;11382;48.086;11.632;2023-05-21T17:41:42;24.10;60.90
22430;DHT22;11382;48.086;11.632;2023-05-21T17:44:13;24.00;61.50
22430;DHT22;11382;48.086;11.632;2023-05-21T17:46:42;23.90;61.00
22430;DHT22;11382;48.086;11.632;2023-05-21T17:49:10;23.90;61.50
22430;DHT22;11382;48.086;11.632;2023-05-21T17:51:38;23.80;61.30
22430;DHT22;11382;48.086;11.632;2023-05-21T17:54:06;23.70;61.60
22430;DHT22;11382;48.086;11.632;2023-05-21T17:56:36;23.70;61.90
22430;DHT22;11382;48.086;11.632;2023-05-21T17:59:05;23.60;62.10
22430;DHT22;11382;48.086;11.632;2023-05-21T18:01:34;23.40;62.40
22430;DHT22;11382;48.086;11.632;2023-05-21T18:04:04;23.40;62.70
22430;DHT22;11382;48.086;11.632;2023-05-21T18:06:34;23.30;62.90
22430;DHT22;11382;48.086;11.632;2023-05-21T18:09:02;23.30;63.20
22430;DHT22;11382;48.086;11.632;2023-05-21T18:11:32;23.20;64.10
22430;DHT22;11382;48.086;11.632;2023-05-21T18:14:01;23.10;65.00
22430;DHT22;11382;48.086;11.632;2023-05-21T18:16:30;23.00;66.20